Tiempo atmosférico en la estación meteorológica de Zafra, Badajoz (433 m.)



Fecha
DESCASC
Temp. máxima en grados centígrados (hora)
DESCASC
Temp. mínima en grados centígrados (hora)
DESCASC
Temp. media en grados centígrados
DESCASC
Racha de viento máxima en m/sg (hora)
DESCASC
Velocidad máxima media en intervalos de 10 minutos(hora)
DESCASC
Precipitaciones diarias en mm
DESCASC
Precipitaciones de 00:00 a 06:00 en mm
DESCASC
Precipitaciones de 06:00 a 12:00 en mm
DESCASC
Precipitaciones de 12:00 a 18:00 en mm
DESCASC
Precipitaciones de 18:00 a 24:00 en mm
DESCASC
16-01-2020 16.7 (14:40) 6 (08:10) 11.4 16.11 (23:59) 7.22 (23:59) 0 0 0 0 0
15-01-2020 14.2 (14:40) 4.7 (02:30) 9.4 15.28 (05:50) 8.61 (05:50) 0.4 0 0 0.4 0
14-01-2020 13 (13:40) -0.1 (08:30) 6.4 15.28 (17:40) 8.61 (17:50) 0 0 0 0 0
13-01-2020 13.1 (16:40) -0.4 (07:20) 6.4 6.67 (14:30) 3.89 (06:10) 0 0 0 0 0
12-01-2020 14 (13:30) -0.5 (-00:0) 6.8 6.11 (15:20) 4.17 (15:20) 0 0 0 0 0
11-01-2020 13.8 (16:40) -2.4 (-00:0) 5.7 5 (13:00) 2.78 (11:50) 0 0 0 0 0
10-01-2020 12.4 (16:00) -0.4 (00:00) 6 7.78 (10:50) 5.28 (11:00) 0 0 0 0 0
09-01-2020 13.5 (16:00) 0.4 (00:00) 7 5 (14:00) 3.33 (14:00) 0 0 0 0 0
08-01-2020 17 (16:00) 0.4 (00:00) 8.7 4.44 (09:20) 3.33 (09:20) 0 0 0 0 0
07-01-2020 15.8 (16:20) 0.1 (00:00) 8 4.72 (15:20) 3.06 (15:30) 0 0 0 0 0
06-01-2020 15.3 (15:40) 0.6 (00:00) 8 3.61 (07:20) 2.5 (08:30) 0.2 0 0.2 0 0
05-01-2020 13.9 (16:20) 0.1 (00:00) 7 4.17 (13:00) 2.78 (15:00) 0 0 0 0 0
04-01-2020 12.4 (15:40) 2.1 (00:00) 7.2 5.83 (15:30) 3.61 (16:00) 0 0 0 0 0
03-01-2020 12.7 (15:00) 3.5 (00:00) 8.1 6.39 (15:00) 4.17 (15:40) 0 0 0 0 0
02-01-2020 15.9 (15:30) 2.9 (00:00) 9.4 5 (16:20) 3.61 (08:10) 0.2 0 0.2 0 0
01-01-2020 16.6 (13:50) 2.2 (00:00) 9.4 5 (11:20) 3.33 (15:00) 0 0 0 0 0
31-12-2019 15.9 (14:30) 1.6 (00:00) 8.7 5 (16:10) 3.61 (16:10) 0 0 0 0 0
30-12-2019 17.2 (13:50) 1.8 (00:00) 9.5 4.44 (09:20) 3.33 (00:40) 0 0 0 0 0
29-12-2019 20.8 (14:50) 3.9 (00:00) 12.3 4.44 (01:20) 3.61 (05:50) 0 0 0 0 0
28-12-2019 21.8 (15:30) 4.7 (00:00) 13.2 5 (13:40) 3.06 (23:20) 0 0 0 0 0
27-12-2019 21.6 (15:20) 4.7 (00:00) 13.2 5.28 (13:10) 3.61 (13:10) 0 0 0 0 0
26-12-2019 13.8 (12:20) 5.6 (00:00) 9.7 4.72 (13:20) 3.33 (12:50) 0 0 0 0 0
25-12-2019 22.6 (15:30) 6.3 (00:00) 14.5 6.39 (12:20) 4.17 (12:20) 0 0 0 0 0
24-12-2019 22.6 (15:00) 5.3 (00:00) 14 6.11 (12:10) 3.89 (11:00) 0 0 0 0 0
23-12-2019 16.3 (15:30) 6.2 (00:00) 11.2 4.72 (09:20) 3.33 (09:20) 0 0 0 0 0
22-12-2019 15.9 (15:30) 10.1 (00:00) 13 13.33 (00:20) 6.11 (12:30) 0 0 0 0 0
21-12-2019 17.1 (15:40) 13.1 (00:00) 15.1 19.17 (15:40) 9.72 (18:50) 21.2 10.4 7.4 3.4 0
20-12-2019 16.2 (17:10) 14.7 (00:00) 15.5 21.94 (01:20) 9.72 (05:20) 32.6 19.2 1.6 1.6 10.2
19-12-2019 17 (12:40) 11.9 (03:40) 14.4 23.61 (19:40) 11.39 (19:50) 10.4 4.2 2.8 0.8 2.6

Gráficas

Temp. máximas Temp. mínimas Temp. medias Precipitaciones Rachas de viento máximas Velocidades máximas media en intervalos de 10 minutos

Datos horarios

Fecha y hora oficial Temperatura (ºC) Velocidad del viento (km/h) Dirección del viento Racha (km/h) Dirección de racha Precipitación (mm) Presión (hPa) Tendencia (hPa) Humedad (%)
2020-01-17 23:00:00 8.2 7 Sudeste 11 Sur 0 -- -- 92
2020-01-17 22:00:00 8.3 6 Sur 11 Sudeste 0 -- -- 92
2020-01-17 21:00:00 7.7 5 Sudeste 6 Sudeste 0 -- -- 92
2020-01-17 20:00:00 8.9 2 Sur 4 Oeste 0 -- -- 89
2020-01-17 19:00:00 10.8 2 Noroeste 4 Oeste 0 -- -- 83
2020-01-17 18:00:00 12.9 3 Noroeste 9 Norte 0 -- -- 77
2020-01-17 17:00:00 14.3 5 Norte 16 Norte 0 -- -- 70
2020-01-17 16:00:00 14.6 6 Norte 14 Noroeste 0 -- -- 67
2020-01-17 15:00:00 14.8 8 Norte 19 Noroeste 0 -- -- 68
2020-01-17 14:00:00 13.8 12 Noroeste 19 Norte 0 -- -- 71
2020-01-17 13:00:00 14.9 3 Sudeste 14 Sur 0 -- -- 67
2020-01-17 12:00:00 13.2 7 Sur 15 Sur 0 -- -- 75
2020-01-17 11:00:00 12.3 5 Sur 10 Sudeste 0 -- -- 80
2020-01-17 10:00:00 10.3 0 Calma 11 Sudoeste 0 -- -- 90
2020-01-17 09:00:00 8.7 3 Norte 17 Sudoeste 0 -- -- 93
2020-01-17 08:00:00 10.1 3 Sudoeste 13 Sudoeste 0 -- -- 92
2020-01-17 07:00:00 10.2 6 Sudeste 16 Sur 0 -- -- 90
2020-01-17 06:00:00 10.8 5 Oeste 22 Sudoeste 0 -- -- 90
2020-01-17 05:00:00 11.3 10 Sudoeste 21 Sudeste 0 -- -- 90
2020-01-17 04:00:00 11.6 7 Sur 26 Sur 0 -- -- 91
2020-01-17 03:00:00 11.4 9 Sur 18 Sur 0 -- -- 93
2020-01-17 02:00:00 11.2 11 Sudeste 30 Sur 0.4 -- -- 92
2020-01-17 01:00:00 11.4 14 Sur 44 Sur 0.4 -- -- 87
2020-01-17 00:00:00 11.8 26 Sur 58 Sudeste 0 -- -- 79
2020-01-16 23:00:00 12 17 Sudeste 41 Sudeste 0 -- -- 74
2020-01-16 22:00:00 11.2 15 Sudeste 27 Sudeste 0 -- -- 70
2020-01-16 21:00:00 11.2 15 Sudeste 30 Sudeste 0 -- -- 59
2020-01-16 20:00:00 11.6 21 Este 28 Sudeste 0 -- -- 53
2020-01-16 19:00:00 12.8 17 Sudeste 28 Sudoeste 0 -- -- 50
2020-01-16 18:00:00 14.3 8 Sur 32 Sudoeste 0 -- -- 43
2020-01-16 17:00:00 15.8 22 Sur 36 Sudoeste 0 -- -- 41
2020-01-16 16:00:00 16.7 18 Sur 39 Sudoeste 0 -- -- 39
2020-01-16 15:00:00 16.7 18 Sur 35 Sudoeste 0 -- -- 42
2020-01-16 14:00:00 16.1 17 Sur 34 Sudeste 0 -- -- 48
2020-01-16 13:00:00 14.7 16 Sudeste 27 Sudeste 0 -- -- 62
2020-01-16 12:00:00 13 16 Sudeste 26 Sudeste 0 -- -- 75
2020-01-16 11:00:00 10.9 15 Sudeste 22 Sudeste 0 -- -- 85
2020-01-16 10:00:00 7.7 9 Sudeste 14 Sudeste 0 -- -- 92
2020-01-16 09:00:00 6.1 9 Sudeste 14 Sudeste 0 -- -- 95
2020-01-16 08:00:00 6.4 11 Sudeste 18 Sur 0 -- -- 94
2020-01-16 07:00:00 7.3 13 Sur 24 Sudeste 0 -- -- 95
2020-01-16 06:00:00 8.1 11 Sur 19 Sur 0 -- -- 91
2020-01-16 05:00:00 9 10 Sur 23 Sur 0 -- -- 91
2020-01-16 04:00:00 8.2 10 Sur 18 Sudeste 0 -- -- 93
2020-01-16 03:00:00 10.3 12 Sur 26 Sur 0 -- -- 90
2020-01-16 02:00:00 10.2 5 Sur 23 Sudeste 0 -- -- 91
2020-01-16 01:00:00 11.4 13 Sur 25 Sudeste 0 -- -- 90
2020-01-16 00:00:00 12 18 Sur 28 Sur 0 -- -- 89
2020-01-15 23:00:00 11 12 Sudeste 22 Sudeste 0 -- -- 91
2020-01-15 22:00:00 11.1 13 Sudeste 21 Sudeste 0 -- -- 90
2020-01-15 21:00:00 11 12 Sudeste 28 Sudeste 0 -- -- 90
2020-01-15 20:00:00 11.1 18 Sur 28 Sur 0 -- -- 91
2020-01-15 19:00:00 11.2 9 Sudeste 28 Sudeste 0 -- -- 92
2020-01-15 18:00:00 11.8 12 Sudeste 22 Sudeste 0.4 -- -- 91
2020-01-15 17:00:00 12.9 15 Sur 32 Sur 0 -- -- 82
2020-01-15 16:00:00 13.8 19 Sur 30 Sur 0 -- -- 77
2020-01-15 15:00:00 14 16 Sudeste 33 Sudeste 0 -- -- 76
2020-01-15 14:00:00 13.8 14 Sudeste 30 Sudeste 0 -- -- 75
2020-01-15 13:00:00 13.8 17 Sudeste 40 Sur 0 -- -- 75
2020-01-15 12:00:00 12.6 20 Sudeste 43 Sur 0 -- -- 78
2020-01-15 11:00:00 11.3 17 Sudeste 31 Sur 0 -- -- 82
2020-01-15 10:00:00 10 17 Sudeste 30 Sudeste 0 -- -- 86
2020-01-15 09:00:00 9 17 Sudeste 39 Sudeste 0 -- -- 84
2020-01-15 08:00:00 9.8 26 Sudeste 49 Sudeste 0 -- -- 81
2020-01-15 07:00:00 9.5 19 Sudeste 51 Sudeste 0 -- -- 80
2020-01-15 06:00:00 9.7 28 Sudeste 55 Sudeste 0 -- -- 77
2020-01-15 05:00:00 8.8 21 Sudeste 40 Sudeste 0 -- -- 81
2020-01-15 04:00:00 7.4 22 Este 30 Este 0 -- -- 88
2020-01-15 03:00:00 4.9 10 Sur 13 Sudeste 0 -- -- 93
2020-01-15 02:00:00 5.6 9 Sur 15 Sur 0 -- -- 90
2020-01-15 01:00:00 6.1 9 Sur 16 Sur 0 -- -- 90
2020-01-15 00:00:00 5.5 10 Sudeste 16 Sudeste 0 -- -- 91
2020-01-14 23:00:00 6.5 9 Sudeste 14 Sur 0 -- -- 86
2020-01-14 22:00:00 8.6 9 Sur 26 Sur 0 -- -- 82
2020-01-14 21:00:00 9.2 19 Sur 33 Sur 0 -- -- 78
2020-01-14 20:00:00 9.5 18 Sur 28 Sur 0 -- -- 76
2020-01-14 19:00:00 10.2 19 Sur 43 Sur 0 -- -- 73
2020-01-14 18:00:00 11 27 Sur 55 Sudoeste 0 -- -- 70
2020-01-14 17:00:00 11.8 20 Sudeste 33 Sur 0 -- -- 67
2020-01-14 16:00:00 11.2 16 Sur 28 Sur 0 -- -- 71
2020-01-14 15:00:00 11.8 15 Sur 26 Sur 0 -- -- 67
2020-01-14 14:00:00 12.6 11 Sur 23 Sudeste 0 -- -- 60
2020-01-14 13:00:00 12 13 Sudeste 22 Sudeste 0 -- -- 62
2020-01-14 12:00:00 10.6 11 Sur 21 Sudeste 0 -- -- 71
2020-01-14 11:00:00 7.5 10 Sudeste 15 Sudeste 0 -- -- 82
2020-01-14 10:00:00 3.3 13 Sur 17 Sur 0 -- -- 91
2020-01-14 09:00:00 0.9 10 Sudeste 15 Sur 0 -- -- 94
2020-01-14 08:00:00 0.1 13 Sudeste 14 Sudeste 0 -- -- 93
2020-01-14 07:00:00 0.3 11 Sur 14 Sur 0 -- -- 93
2020-01-14 06:00:00 0.4 11 Sur 15 Sur 0 -- -- 93
2020-01-14 05:00:00 0.7 10 Sur 13 Sur 0 -- -- 93
2020-01-14 04:00:00 0.8 9 Sur 12 Sudeste 0 -- -- 93
2020-01-14 03:00:00 0.7 8 Sudeste 10 Sur 0 -- -- 92
2020-01-14 02:00:00 0.9 7 Sudeste 14 Sur 0 -- -- 92
2020-01-14 01:00:00 1.6 8 Sur 11 Sudeste 0 -- -- 92
2020-01-14 00:00:00 1.4 4 Sudeste 11 Sur 0 -- -- 92
2020-01-13 23:00:00 1.5 6 Sudeste 10 Sudeste 0 -- -- 91
2020-01-13 22:00:00 2.3 5 Sur 9 Sur 0 -- -- 90
2020-01-13 21:00:00 3.4 6 Sudeste 13 Sudeste 0 -- -- 87
2020-01-13 20:00:00 4.4 5 Sudeste 8 Sudeste 0 -- -- 84
2020-01-13 19:00:00 6.4 3 Sudeste 6 Sudeste 0 -- -- 77
2020-01-13 18:00:00 10.5 3 Sudoeste 8 Sudoeste 0 -- -- 62
2020-01-13 17:00:00 12.5 5 Oeste 14 Oeste 0 -- -- 52
2020-01-13 16:00:00 12.8 7 Oeste 16 Noroeste 0 -- -- 51
2020-01-13 15:00:00 13 10 Oeste 24 Oeste 0 -- -- 50
2020-01-13 14:00:00 12.6 9 Oeste 22 Oeste 0 -- -- 51
2020-01-13 13:00:00 12.4 13 Sur 22 Sur 0 -- -- 56
2020-01-13 12:00:00 10.9 10 Sudeste 16 Sudeste 0 -- -- 63
2020-01-13 11:00:00 6.4 9 Sudeste 13 Sudeste 0 -- -- 80
2020-01-13 10:00:00 2.2 9 Sudeste 15 Sur 0 -- -- 89
2020-01-13 09:00:00 0.6 10 Sur 15 Sur 0 -- -- 92
2020-01-13 08:00:00 -0.2 10 Sur 13 Sur 0 -- -- 92
2020-01-13 07:00:00 0 9 Sudeste 21 Sur 0 -- -- 91
2020-01-13 06:00:00 0 12 Sudeste 14 Sudeste 0 -- -- 91
2020-01-13 05:00:00 0.4 10 Sudeste 12 Sur 0 -- -- 91
2020-01-13 04:00:00 -0.2 8 Sur 10 Sur 0 -- -- 91
2020-01-13 03:00:00 -0.1 7 Sudeste 12 Sur 0 -- -- 89
2020-01-13 02:00:00 0.2 9 Sudeste 14 Sur 0 -- -- 89
2020-01-13 01:00:00 1.2 9 Sur 12 Sur 0 -- -- 89
2020-01-13 00:00:00 1.1 9 Sur 12 Sudeste 0 -- -- 91
2020-01-12 23:00:00 0.5 7 Sudeste 9 Sudeste 0 -- -- 90
2020-01-12 22:00:00 1.3 6 Sudeste 8 Sur 0 -- -- 89
2020-01-12 21:00:00 2.1 4 Sudeste 6 Sudeste 0 -- -- 86
2020-01-12 20:00:00 3.5 5 Sudeste 6 Sudeste 0 -- -- 82
2020-01-12 19:00:00 6.4 0 Calma 4 Noroeste 0 -- -- 73
2020-01-12 18:00:00 9.6 4 Noroeste 11 Noroeste 0 -- -- 57
2020-01-12 17:00:00 12.9 8 Noroeste 18 Norte 0 -- -- 50
2020-01-12 16:00:00 13.4 10 Norte 22 Noroeste 0 -- -- 51
2020-01-12 15:00:00 13.9 12 Noroeste 20 Noroeste 0 -- -- 51
2020-01-12 14:00:00 13.6 7 Noroeste 15 Noroeste 0 -- -- 50
2020-01-12 13:00:00 13.3 4 Sudeste 10 Sudeste 0 -- -- 49
2020-01-12 12:00:00 11.3 5 Sur 10 Sudeste 0 -- -- 61
2020-01-12 11:00:00 7.2 8 Sur 14 Sur 0 -- -- 78
2020-01-12 10:00:00 2.5 11 Sudeste 15 Sudeste 0 -- -- 89
2020-01-12 09:00:00 -0.5 12 Sudeste 15 Sudeste 0 -- -- 94
2020-01-12 08:00:00 -0.1 10 Sudeste 12 Sudeste 0 -- -- 94
2020-01-12 07:00:00 -0.5 9 Sudeste 12 Sudeste 0 -- -- 94
2020-01-12 06:00:00 -0.3 5 Sudeste 13 Sudeste 0 -- -- 94
2020-01-12 05:00:00 -0.3 7 Sudeste 13 Sudeste 0 -- -- 93
2020-01-12 04:00:00 0.7 12 Sur 15 Sudeste 0 -- -- 93
2020-01-12 03:00:00 1.1 11 Sudeste 15 Sur 0 -- -- 92
2020-01-12 02:00:00 1.3 8 Sur 12 Sur 0 -- -- 93
2020-01-12 01:00:00 1.1 6 Sur 11 Sudeste 0 -- -- 94
2020-01-12 00:00:00 0.9 6 Sudeste 9 Sudeste 0 -- -- 93
2020-01-11 23:00:00 1.4 7 Sudeste 9 Sudeste 0 -- -- 92
2020-01-11 22:00:00 2 6 Sudeste 7 Sudeste 0 -- -- 90
2020-01-11 21:00:00 2.3 3 Sudeste 5 Sudeste 0 -- -- 89
2020-01-11 20:00:00 3.7 0 Calma 5 Sudeste 0 -- -- 83
2020-01-11 19:00:00 6.4 0 Calma 3 Este 0 -- -- 73
2020-01-11 18:00:00 10.1 0 Calma 9 Este 0 -- -- 58
2020-01-11 17:00:00 13.8 7 Este 13 Este 0 -- -- 41
2020-01-11 16:00:00 13.3 5 Norte 14 Nordeste 0 -- -- 45
2020-01-11 15:00:00 12.5 6 Noroeste 15 Norte 0 -- -- 52
2020-01-11 14:00:00 11.5 7 Norte 15 Norte 0 -- -- 55
2020-01-11 13:00:00 10.7 9 Norte 18 Norte 0 -- -- 59
2020-01-11 12:00:00 9.8 10 Este 17 Este 0 -- -- 58
2020-01-11 11:00:00 5.5 6 Noroeste 10 Noroeste 0 -- -- 85
2020-01-11 10:00:00 1.5 2 Sudeste 8 Sudeste 0 -- -- 98
2020-01-11 09:00:00 -2.2 0 Calma 4 Noroeste 0 -- -- 97
2020-01-11 08:00:00 -2 2 Sudeste 5 Sudeste 0 -- -- 97
2020-01-11 07:00:00 -1.2 3 Sudeste 6 Sudeste 0 -- -- 97
2020-01-11 06:00:00 -0.8 4 Sudeste 6 Sudeste 0 -- -- 97
2020-01-11 05:00:00 -1.2 0 Calma 3 Sudeste 0 -- -- 97
2020-01-11 04:00:00 -0.4 0 Calma 5 Sur 0 -- -- 97
2020-01-11 03:00:00 -0.5 0 Calma 3 Sur 0 -- -- 97
2020-01-11 02:00:00 0.1 0 Calma 3 Norte 0 -- -- 96
2020-01-11 01:00:00 1.2 3 Norte 6 Norte 0 -- -- 95
2020-01-11 00:00:00 0.8 2 Sudeste 3 Sudeste 0 -- -- 95
2020-01-10 23:00:00 1.7 0 Calma 4 Sudeste 0 -- -- 95
2020-01-10 22:00:00 2.5 2 Sudeste 3 Noroeste 0 -- -- 93
2020-01-10 21:00:00 3.8 3 Noroeste 5 Noroeste 0 -- -- 88
2020-01-10 20:00:00 6.1 2 Noroeste 8 Noroeste 0 -- -- 83
2020-01-10 19:00:00 7.1 6 Noroeste 13 Norte 0 -- -- 79
2020-01-10 18:00:00 9.8 9 Norte 21 Norte 0 -- -- 69
2020-01-10 17:00:00 11.8 12 Norte 26 Noroeste 0 -- -- 61
2020-01-10 16:00:00 12.4 15 Norte 27 Norte 0 -- -- 60
2020-01-10 15:00:00 11.1 10 Nordeste 23 Norte 0 -- -- 62
2020-01-10 14:00:00 9.7 6 Norte 17 Norte 0 -- -- 69
2020-01-10 13:00:00 7.9 10 Norte 23 Norte 0 -- -- 76
2020-01-10 12:00:00 7.5 14 Norte 28 Norte 0 -- -- 75
2020-01-10 11:00:00 6.6 19 Norte 28 Noroeste 0 -- -- 76
2020-01-10 10:00:00 3.9 10 Noroeste 13 Noroeste 0 -- -- 95
2020-01-10 09:00:00 -0.4 0 Calma 4 Sudeste 0 -- -- 97
2020-01-10 08:00:00 0.6 2 Sudeste 4 Sudeste 0 -- -- 97
2020-01-10 07:00:00 0.9 2 Sudeste 3 Sudeste 0 -- -- 96
2020-01-10 06:00:00 2.1 0 Calma 6 Sur 0 -- -- 95
2020-01-10 05:00:00 3.3 4 Sudeste 6 Noroeste 0 -- -- 94
2020-01-10 04:00:00 5.5 4 Noroeste 13 Noroeste 0 -- -- 92
2020-01-10 03:00:00 6.9 10 Norte 15 Norte 0 -- -- 91
2020-01-10 02:00:00 8.4 9 Noroeste 20 Noroeste 0 -- -- 93
2020-01-10 01:00:00 6.3 4 Noroeste 7 Norte 0 -- -- 95
2020-01-10 00:00:00 8.2 0 Calma 8 Sudoeste 0 -- -- 93
2020-01-09 23:00:00 8.8 3 Sudeste 6 Este 0 -- -- 91
2020-01-09 22:00:00 8.6 0 Calma 4 Sudeste 0 -- -- 90
2020-01-09 21:00:00 6.6 0 Calma 5 Sudeste 0 -- -- 92
2020-01-09 20:00:00 6.1 0 Calma 5 Sudeste 0 -- -- 89
2020-01-09 19:00:00 8 4 Sudeste 6 Sudeste 0 -- -- 84
2020-01-09 18:00:00 10.8 4 Noroeste 11 Norte 0 -- -- 75
2020-01-09 17:00:00 13.3 9 Noroeste 17 Noroeste 0 -- -- 67
2020-01-09 16:00:00 13.5 11 Noroeste 15 Noroeste 0 -- -- 64
2020-01-09 15:00:00 12.9 5 Noroeste 17 Noroeste 0 -- -- 69
2020-01-09 14:00:00 12.2 12 Noroeste 18 Noroeste 0 -- -- 71
2020-01-09 13:00:00 11.5 8 Noroeste 12 Noroeste 0 -- -- 70
2020-01-09 12:00:00 10.2 3 Noroeste 10 Sur 0 -- -- 71
2020-01-09 11:00:00 8 8 Sudeste 11 Sudeste 0 -- -- 81
2020-01-09 10:00:00 3.3 5 Sudeste 12 Sudeste 0 -- -- 93
2020-01-09 09:00:00 0.5 10 Sudeste 13 Sudeste 0 -- -- 95
2020-01-09 08:00:00 1.2 8 Sur 14 Sur 0 -- -- 94
2020-01-09 07:00:00 0.8 9 Sur 13 Sur 0 -- -- 95
2020-01-09 06:00:00 0.8 6 Sudeste 11 Sur 0 -- -- 94
2020-01-09 05:00:00 1.1 8 Sudeste 13 Sudeste 0 -- -- 95
2020-01-09 04:00:00 1.2 5 Sudeste 13 Sur 0 -- -- 94
2020-01-09 03:00:00 1.5 8 Sudeste 11 Sudeste 0 -- -- 94
2020-01-09 02:00:00 2.2 8 Sudeste 10 Sudeste 0 -- -- 95
2020-01-09 01:00:00 1.6 6 Sudeste 9 Sudeste 0 -- -- 95
2020-01-09 00:00:00 2.1 8 Sudeste 9 Sudeste 0 -- -- 94
2020-01-08 23:00:00 2.7 7 Sudeste 9 Sudeste 0 -- -- 94
2020-01-08 22:00:00 3.5 5 Sudeste 8 Sudeste 0 -- -- 93
2020-01-08 21:00:00 4.6 5 Sudeste 7 Sudeste 0 -- -- 90
2020-01-08 20:00:00 5.8 2 Sudeste 4 Sur 0 -- -- 86
2020-01-08 19:00:00 9 2 Noroeste 8 Noroeste 0 -- -- 76
2020-01-08 18:00:00 11.5 5 Noroeste 9 Noroeste 0 -- -- 68
2020-01-08 17:00:00 14.7 9 Noroeste 12 Noroeste 0 -- -- 54
2020-01-08 16:00:00 17 5 Oeste 7 Oeste 0 -- -- 39
2020-01-08 15:00:00 16 5 Noroeste 9 Noroeste 0 -- -- 42
2020-01-08 14:00:00 14.7 6 Noroeste 12 Noroeste 0 -- -- 53
2020-01-08 13:00:00 14.1 8 Noroeste 12 Noroeste 0 -- -- 58
2020-01-08 12:00:00 12.9 0 Calma 8 Sudeste 0 -- -- 63
2020-01-08 11:00:00 8.9 6 Sudeste 13 Sur 0 -- -- 83
2020-01-08 10:00:00 4.4 8 Sudeste 16 Sudeste 0 -- -- 92
2020-01-08 09:00:00 0.6 10 Sudeste 13 Sudeste 0 -- -- 96
2020-01-08 08:00:00 0.7 10 Sudeste 13 Sudeste 0 -- -- 95
2020-01-08 07:00:00 1.7 8 Sur 13 Sudeste 0 -- -- 94
2020-01-08 06:00:00 1.1 8 Sur 10 Sudeste 0 -- -- 96
2020-01-08 05:00:00 0.7 7 Sudeste 10 Sudeste 0 -- -- 95
2020-01-08 04:00:00 1.2 8 Sudeste 10 Sudeste 0 -- -- 95
2020-01-08 03:00:00 1.8 6 Sudeste 10 Sudeste 0 -- -- 95
2020-01-08 02:00:00 1.8 8 Sudeste 10 Sudeste 0 -- -- 95
2020-01-08 01:00:00 2 7 Sudeste 9 Sudeste 0 -- -- 94
2020-01-08 00:00:00 2.5 7 Sudeste 9 Sudeste 0 -- -- 93
2020-01-07 23:00:00 2.8 6 Sudeste 8 Sudeste 0 -- -- 93
2020-01-07 22:00:00 3.2 5 Sudeste 8 Sudeste 0 -- -- 92
2020-01-07 21:00:00 4.3 5 Sudeste 7 Sudeste 0 -- -- 90
2020-01-07 20:00:00 5.5 4 Sudeste 6 Sur 0 -- -- 87
2020-01-07 19:00:00 7.4 3 Sudeste 4 Sudeste 0 -- -- 82
2020-01-07 18:00:00 11.2 3 Noroeste 6 Oeste 0 -- -- 69
2020-01-07 17:00:00 15.2 6 Oeste 10 Noroeste 0 -- -- 52
2020-01-07 16:00:00 15.5 7 Noroeste 17 Noroeste 0 -- -- 51
2020-01-07 15:00:00 15.2 9 Noroeste 13 Noroeste 0 -- -- 57
2020-01-07 14:00:00 14.5 8 Noroeste 14 Oeste 0 -- -- 61
2020-01-07 13:00:00 13.3 6 Noroeste 9 Noroeste 0 -- -- 64
2020-01-07 12:00:00 11.5 4 Noroeste 7 Noroeste 0 -- -- 67
2020-01-07 11:00:00 9.1 0 Calma 9 Sudeste 0 -- -- 81
2020-01-07 10:00:00 3.8 6 Sur 9 Sudeste 0 -- -- 97
2020-01-07 09:00:00 0.3 7 Sudeste 9 Sur 0 -- -- 98
2020-01-07 08:00:00 0.2 6 Sudeste 9 Sudeste 0 -- -- 97
2020-01-07 07:00:00 0.2 6 Sudeste 9 Sur 0 -- -- 97
2020-01-07 06:00:00 0.2 6 Sudeste 9 Sudeste 0 -- -- 97
2020-01-07 05:00:00 0.7 4 Sudeste 10 Sudeste 0 -- -- 96
2020-01-07 04:00:00 1.2 7 Sur 9 Sudeste 0 -- -- 97
2020-01-07 03:00:00 1.2 7 Sudeste 11 Sudeste 0 -- -- 96
2020-01-07 02:00:00 1.6 9 Sudeste 11 Sudeste 0 -- -- 96
2020-01-07 01:00:00 2.1 9 Sudeste 12 Sudeste 0 -- -- 96
2020-01-07 00:00:00 2.3 6 Sudeste 9 Sudeste 0 -- -- 96
2020-01-06 23:00:00 3 6 Sudeste 8 Sudeste 0 -- -- 96
2020-01-06 22:00:00 3.4 4 Sudeste 6 Sudeste 0 -- -- 93
2020-01-06 21:00:00 3.7 3 Sudeste 3 Sudeste 0 -- -- 92
2020-01-06 20:00:00 5.4 0 Calma 5 Sudeste 0 -- -- 89
2020-01-06 19:00:00 8.1 0 Calma 5 Noroeste 0 -- -- 80
2020-01-06 18:00:00 11.2 3 Noroeste 10 Noroeste 0 -- -- 72
2020-01-06 17:00:00 14.5 5 Oeste 9 Noroeste 0 -- -- 58
2020-01-06 16:00:00 15.2 8 Oeste 12 Oeste 0 -- -- 59
2020-01-06 15:00:00 14.7 4 Oeste 12 Noroeste 0 -- -- 55
2020-01-06 14:00:00 13.5 6 Noroeste 10 Oeste 0 -- -- 62
2020-01-06 13:00:00 13.2 2 Noroeste 6 Noroeste 0 -- -- 64
2020-01-06 12:00:00 10.2 0 Calma 5 Noroeste 0 -- -- 76
2020-01-06 11:00:00 8.1 0 Calma 9 Sudeste 0 -- -- 87
2020-01-06 10:00:00 3.1 6 Sudeste 8 Sudeste 0 -- -- 98